AIQ67 WSSS-VTBS
Flight info
| Callsign | AIQ67 |
|---|---|
| Flight time | N/A |
| Altitude | 38000 |
| Route | VMR6A VMR B469 VPK M751 VKB M644 ALUMO Y12 ALEMI TUMGA1C |
| Aircraft | A20N/M-SDE2E3FGHIRWXY/LB1 |
Departure
| Time | N/A |
|---|---|
| Airport | Singapore Changi Airport (WSSS) |
Arrival
| Time | 2026-05-05 14:48 |
|---|---|
| Airport | Suvarnabhumi Airport (VTBS) |
| Time | Latitude | Longitude | Altitude | Speed | Heading |
|---|---|---|---|---|---|
| 2026-05-05 13:43 | 9.31508 | 101.98320 | 37983 ft | 470 kts | 355° |
| 2026-05-05 13:44 | 9.38009 | 101.97751 | 37983 ft | 470 kts | 355° |
| 2026-05-05 13:44 | 9.44472 | 101.97186 | 37983 ft | 470 kts | 355° |
| 2026-05-05 13:45 | 9.50987 | 101.96617 | 37983 ft | 470 kts | 355° |
| 2026-05-05 13:45 | 9.57491 | 101.96049 | 37983 ft | 470 kts | 355° |
| 2026-05-05 13:46 | 9.63579 | 101.95517 | 37983 ft | 470 kts | 355° |
| 2026-05-05 13:46 | 9.70099 | 101.94948 | 37983 ft | 470 kts | 355° |
| 2026-05-05 13:47 | 9.76590 | 101.94380 | 37983 ft | 470 kts | 355° |
| 2026-05-05 13:47 | 9.83081 | 101.93813 | 37983 ft | 470 kts | 355° |
| 2026-05-05 13:48 | 9.89574 | 101.93245 | 37983 ft | 470 kts | 355° |
| 2026-05-05 13:48 | 9.96057 | 101.92677 | 37983 ft | 470 kts | 355° |
| 2026-05-05 13:49 | 10.02416 | 101.92120 | 37983 ft | 470 kts | 355° |
| 2026-05-05 13:49 | 10.09054 | 101.91539 | 37983 ft | 470 kts | 355° |
| 2026-05-05 13:50 | 10.15520 | 101.90974 | 37983 ft | 470 kts | 355° |
| 2026-05-05 13:50 | 10.22030 | 101.90406 | 37983 ft | 470 kts | 355° |
| 2026-05-05 13:51 | 10.28483 | 101.89841 | 37983 ft | 470 kts | 355° |
| 2026-05-05 13:51 | 10.34960 | 101.89272 | 37983 ft | 470 kts | 355° |
| 2026-05-05 13:52 | 10.41470 | 101.88701 | 37983 ft | 470 kts | 355° |
| 2026-05-05 13:52 | 10.47958 | 101.88131 | 37983 ft | 470 kts | 355° |
| 2026-05-05 13:53 | 10.53045 | 101.87683 | 37968 ft | 472 kts | 355° |
| 2026-05-05 13:53 | 10.59551 | 101.87113 | 37905 ft | 474 kts | 355° |
| 2026-05-05 13:54 | 10.72762 | 101.85951 | 37850 ft | 475 kts | 355° |
| 2026-05-05 13:55 | 10.79286 | 101.84978 | 37844 ft | 475 kts | 348° |
| 2026-05-05 13:55 | 10.85626 | 101.83556 | 37841 ft | 475 kts | 347° |
| 2026-05-05 13:56 | 10.92081 | 101.82066 | 37840 ft | 476 kts | 348° |
| 2026-05-05 13:56 | 10.97821 | 101.80745 | 37840 ft | 475 kts | 348° |
| 2026-05-05 13:57 | 11.04223 | 101.79277 | 37842 ft | 472 kts | 349° |
| 2026-05-05 13:57 | 11.10246 | 101.77903 | 37840 ft | 470 kts | 349° |
| 2026-05-05 13:58 | 11.39596 | 101.71215 | 37836 ft | 470 kts | 349° |
| 2026-05-05 13:59 | 11.50785 | 101.68645 | 37840 ft | 470 kts | 349° |
| 2026-05-05 14:00 | 11.59235 | 101.66705 | 37840 ft | 470 kts | 349° |
| 2026-05-05 14:00 | 11.69116 | 101.64436 | 37841 ft | 470 kts | 349° |
| 2026-05-05 14:01 | 11.75464 | 101.62979 | 37675 ft | 470 kts | 349° |
| 2026-05-05 14:01 | 11.85635 | 101.60639 | 36886 ft | 461 kts | 349° |
| 2026-05-05 14:01 | 11.86694 | 101.60395 | 36799 ft | 457 kts | 349° |
| 2026-05-05 14:02 | 11.90772 | 101.59457 | 36461 ft | 447 kts | 349° |
| 2026-05-05 14:02 | 11.91744 | 101.59233 | 36381 ft | 447 kts | 349° |
| 2026-05-05 14:02 | 12.00477 | 101.57226 | 35661 ft | 448 kts | 349° |
| 2026-05-05 14:03 | 12.03475 | 101.56536 | 35415 ft | 448 kts | 349° |
| 2026-05-05 14:03 | 12.06513 | 101.55836 | 35165 ft | 449 kts | 349° |
| 2026-05-05 14:03 | 12.09292 | 101.55197 | 34937 ft | 450 kts | 349° |
| 2026-05-05 14:03 | 12.12120 | 101.54546 | 34705 ft | 450 kts | 349° |
| 2026-05-05 14:04 | 12.14893 | 101.53910 | 34478 ft | 451 kts | 349° |
| 2026-05-05 14:04 | 12.17924 | 101.53215 | 34230 ft | 451 kts | 349° |
| 2026-05-05 14:04 | 12.20975 | 101.52513 | 33981 ft | 452 kts | 349° |
| 2026-05-05 14:04 | 12.24037 | 101.51809 | 33852 ft | 452 kts | 349° |
| 2026-05-05 14:05 | 12.30134 | 101.50403 | 33844 ft | 452 kts | 349° |
| 2026-05-05 14:05 | 12.36252 | 101.48990 | 33842 ft | 452 kts | 349° |
| 2026-05-05 14:06 | 12.42372 | 101.47577 | 33842 ft | 452 kts | 349° |
| 2026-05-05 14:06 | 12.48266 | 101.46214 | 33842 ft | 452 kts | 349° |
| 2026-05-05 14:07 | 12.60566 | 101.43331 | 33848 ft | 453 kts | 347° |
| 2026-05-05 14:07 | 12.64586 | 101.42150 | 33845 ft | 453 kts | 345° |
| 2026-05-05 14:08 | 12.77693 | 101.38076 | 30780 ft | 460 kts | 345° |
| 2026-05-05 14:08 | 12.80706 | 101.37138 | 29832 ft | 453 kts | 345° |
| 2026-05-05 14:09 | 12.83703 | 101.36206 | 28820 ft | 447 kts | 345° |
| 2026-05-05 14:09 | 12.86633 | 101.35295 | 27780 ft | 444 kts | 345° |
| 2026-05-05 14:09 | 12.89440 | 101.34419 | 26741 ft | 442 kts | 344° |
| 2026-05-05 14:09 | 12.92327 | 101.33508 | 25650 ft | 443 kts | 344° |
| 2026-05-05 14:10 | 12.95229 | 101.32594 | 24610 ft | 444 kts | 344° |
| 2026-05-05 14:10 | 12.98158 | 101.31676 | 23587 ft | 450 kts | 344° |
| 2026-05-05 14:10 | 13.01137 | 101.30743 | 22529 ft | 456 kts | 344° |
| 2026-05-05 14:10 | 13.04067 | 101.29829 | 21848 ft | 454 kts | 345° |
| 2026-05-05 14:11 | 13.07125 | 101.28875 | 21130 ft | 450 kts | 345° |
| 2026-05-05 14:11 | 13.10074 | 101.27957 | 20435 ft | 445 kts | 345° |
| 2026-05-05 14:11 | 13.12991 | 101.27052 | 19762 ft | 440 kts | 345° |
| 2026-05-05 14:11 | 13.15874 | 101.26160 | 19308 ft | 430 kts | 345° |
| 2026-05-05 14:12 | 13.18706 | 101.25283 | 19002 ft | 423 kts | 345° |
| 2026-05-05 14:12 | 13.21509 | 101.24414 | 18706 ft | 418 kts | 345° |
| 2026-05-05 14:12 | 13.24251 | 101.23563 | 18431 ft | 414 kts | 345° |
| 2026-05-05 14:12 | 13.26992 | 101.22711 | 18184 ft | 411 kts | 345° |
| 2026-05-05 14:13 | 13.29684 | 101.21872 | 17875 ft | 399 kts | 345° |
| 2026-05-05 14:13 | 13.32248 | 101.21018 | 17796 ft | 382 kts | 339° |
| 2026-05-05 14:13 | 13.34415 | 101.19546 | 17799 ft | 369 kts | 317° |
| 2026-05-05 14:13 | 13.35882 | 101.17392 | 17825 ft | 372 kts | 296° |
| 2026-05-05 14:14 | 13.36620 | 101.14861 | 17847 ft | 375 kts | 285° |
| 2026-05-05 14:14 | 13.37154 | 101.12234 | 17844 ft | 375 kts | 283° |
| 2026-05-05 14:14 | 13.37668 | 101.09598 | 17798 ft | 376 kts | 284° |
| 2026-05-05 14:14 | 13.38193 | 101.06962 | 17286 ft | 376 kts | 284° |
| 2026-05-05 14:15 | 13.38727 | 101.04344 | 16809 ft | 373 kts | 284° |
| 2026-05-05 14:15 | 13.39263 | 101.01760 | 16360 ft | 368 kts | 284° |
| 2026-05-05 14:15 | 13.39796 | 100.99213 | 15922 ft | 364 kts | 284° |
| 2026-05-05 14:15 | 13.40321 | 100.96707 | 15495 ft | 360 kts | 285° |
| 2026-05-05 14:16 | 13.40834 | 100.94266 | 15078 ft | 357 kts | 285° |
| 2026-05-05 14:16 | 13.41348 | 100.91814 | 14743 ft | 350 kts | 285° |
| 2026-05-05 14:16 | 13.41862 | 100.89420 | 14711 ft | 332 kts | 288° |
| 2026-05-05 14:16 | 13.42836 | 100.87415 | 14692 ft | 308 kts | 316° |
| 2026-05-05 14:17 | 13.44523 | 100.86223 | 14683 ft | 284 kts | 343° |
| 2026-05-05 14:17 | 13.46383 | 100.85936 | 14617 ft | 267 kts | 6° |
| 2026-05-05 14:17 | 13.48120 | 100.86407 | 14587 ft | 251 kts | 27° |
| 2026-05-05 14:17 | 13.49492 | 100.87458 | 14578 ft | 249 kts | 47° |
| 2026-05-05 14:18 | 13.50407 | 100.88982 | 14571 ft | 253 kts | 68° |
| 2026-05-05 14:18 | 13.50703 | 100.90774 | 14566 ft | 258 kts | 90° |
| 2026-05-05 14:18 | 13.50446 | 100.92524 | 14567 ft | 261 kts | 98° |
| 2026-05-05 14:18 | 13.50038 | 100.94389 | 14561 ft | 261 kts | 99° |
| 2026-05-05 14:19 | 13.49625 | 100.96227 | 14557 ft | 261 kts | 99° |
| 2026-05-05 14:19 | 13.49225 | 100.98042 | 14556 ft | 260 kts | 99° |
| 2026-05-05 14:19 | 13.48835 | 100.99841 | 14555 ft | 261 kts | 101° |
| 2026-05-05 14:19 | 13.48166 | 101.01480 | 14546 ft | 266 kts | 122° |
| 2026-05-05 14:20 | 13.46818 | 101.02829 | 14548 ft | 273 kts | 147° |
| 2026-05-05 14:20 | 13.45040 | 101.03499 | 14547 ft | 279 kts | 172° |
| 2026-05-05 14:20 | 13.43129 | 101.03363 | 14545 ft | 281 kts | 197° |
| 2026-05-05 14:20 | 13.41412 | 101.02412 | 14545 ft | 281 kts | 224° |
| 2026-05-05 14:21 | 13.40254 | 101.00841 | 14546 ft | 277 kts | 250° |
| 2026-05-05 14:21 | 13.39830 | 100.98937 | 14550 ft | 271 kts | 275° |
| 2026-05-05 14:21 | 13.40049 | 100.97231 | 14563 ft | 268 kts | 286° |
| 2026-05-05 14:21 | 13.40488 | 100.95380 | 14562 ft | 267 kts | 288° |
| 2026-05-05 14:22 | 13.40941 | 100.93520 | 14562 ft | 267 kts | 287° |
| 2026-05-05 14:22 | 13.41370 | 100.91656 | 14563 ft | 267 kts | 287° |
| 2026-05-05 14:22 | 13.41777 | 100.89806 | 14563 ft | 267 kts | 286° |
| 2026-05-05 14:22 | 13.42414 | 100.87872 | 14238 ft | 304 kts | 301° |
| 2026-05-05 14:23 | 13.43652 | 100.86099 | 13809 ft | 312 kts | 318° |
| 2026-05-05 14:23 | 13.45260 | 100.84830 | 13420 ft | 310 kts | 334° |
| 2026-05-05 14:23 | 13.47229 | 100.84060 | 13026 ft | 306 kts | 350° |
| 2026-05-05 14:23 | 13.49098 | 100.83745 | 12677 ft | 306 kts | 352° |
| 2026-05-05 14:24 | 13.51136 | 100.83207 | 12429 ft | 300 kts | 340° |
| 2026-05-05 14:24 | 13.52976 | 100.82235 | 12367 ft | 287 kts | 332° |
| 2026-05-05 14:24 | 13.54738 | 100.81422 | 12258 ft | 275 kts | 348° |
| 2026-05-05 14:24 | 13.56608 | 100.81296 | 12008 ft | 273 kts | 9° |
| 2026-05-05 14:25 | 13.58438 | 100.81731 | 11679 ft | 271 kts | 15° |
| 2026-05-05 14:25 | 13.60222 | 100.82248 | 11358 ft | 270 kts | 15° |
| 2026-05-05 14:25 | 13.62032 | 100.82769 | 11037 ft | 269 kts | 15° |
| 2026-05-05 14:25 | 13.63849 | 100.83279 | 10918 ft | 277 kts | 15° |
| 2026-05-05 14:26 | 13.65706 | 100.83794 | 10943 ft | 282 kts | 15° |
| 2026-05-05 14:26 | 13.67615 | 100.84319 | 10963 ft | 283 kts | 15° |
| 2026-05-05 14:26 | 13.69491 | 100.84834 | 10972 ft | 283 kts | 15° |
| 2026-05-05 14:26 | 13.71396 | 100.85356 | 10976 ft | 283 kts | 15° |
| 2026-05-05 14:27 | 13.73255 | 100.85865 | 10977 ft | 283 kts | 15° |
| 2026-05-05 14:27 | 13.75163 | 100.86388 | 10978 ft | 283 kts | 15° |
| 2026-05-05 14:27 | 13.77053 | 100.86906 | 10974 ft | 278 kts | 15° |
| 2026-05-05 14:27 | 13.78856 | 100.87400 | 10971 ft | 262 kts | 15° |
| 2026-05-05 14:28 | 13.80567 | 100.87870 | 10965 ft | 247 kts | 15° |
| 2026-05-05 14:28 | 13.82168 | 100.88309 | 10960 ft | 235 kts | 15° |
| 2026-05-05 14:28 | 13.83746 | 100.88741 | 10953 ft | 235 kts | 15° |
| 2026-05-05 14:28 | 13.85336 | 100.89177 | 10868 ft | 237 kts | 15° |
| 2026-05-05 14:29 | 13.86923 | 100.89613 | 10566 ft | 235 kts | 15° |
| 2026-05-05 14:29 | 13.88484 | 100.90040 | 10297 ft | 232 kts | 15° |
| 2026-05-05 14:29 | 13.90021 | 100.90462 | 10033 ft | 228 kts | 15° |
| 2026-05-05 14:29 | 13.91533 | 100.90876 | 9776 ft | 224 kts | 15° |
| 2026-05-05 14:30 | 13.93021 | 100.91284 | 9524 ft | 221 kts | 15° |
| 2026-05-05 14:30 | 13.94493 | 100.91688 | 9276 ft | 217 kts | 15° |
| 2026-05-05 14:30 | 13.95926 | 100.92082 | 9033 ft | 213 kts | 15° |
| 2026-05-05 14:30 | 13.97342 | 100.92471 | 8795 ft | 209 kts | 15° |
| 2026-05-05 14:31 | 13.98763 | 100.92862 | 8557 ft | 208 kts | 14° |
| 2026-05-05 14:31 | 14.00150 | 100.93242 | 8320 ft | 207 kts | 14° |
| 2026-05-05 14:31 | 14.01542 | 100.93618 | 8021 ft | 207 kts | 14° |
| 2026-05-05 14:31 | 14.02934 | 100.93993 | 7716 ft | 207 kts | 14° |
| 2026-05-05 14:32 | 14.04324 | 100.94367 | 7417 ft | 206 kts | 14° |
| 2026-05-05 14:32 | 14.05701 | 100.94738 | 7123 ft | 206 kts | 14° |
| 2026-05-05 14:32 | 14.07082 | 100.95110 | 6827 ft | 205 kts | 14° |
| 2026-05-05 14:32 | 14.08445 | 100.95478 | 6535 ft | 205 kts | 14° |
| 2026-05-05 14:33 | 14.09808 | 100.95847 | 6245 ft | 204 kts | 14° |
| 2026-05-05 14:33 | 14.11167 | 100.96212 | 5959 ft | 204 kts | 14° |
| 2026-05-05 14:33 | 14.12536 | 100.96577 | 5672 ft | 203 kts | 14° |
| 2026-05-05 14:33 | 14.13930 | 100.96676 | 5506 ft | 199 kts | 343° |
| 2026-05-05 14:34 | 14.14992 | 100.95896 | 5451 ft | 186 kts | 309° |
| 2026-05-05 14:34 | 14.15489 | 100.94695 | 5307 ft | 177 kts | 282° |
| 2026-05-05 14:34 | 14.15684 | 100.93487 | 5148 ft | 167 kts | 283° |
| 2026-05-05 14:34 | 14.15885 | 100.92347 | 4977 ft | 159 kts | 282° |
| 2026-05-05 14:35 | 14.16078 | 100.91248 | 4831 ft | 158 kts | 282° |
| 2026-05-05 14:35 | 14.16274 | 100.90141 | 4682 ft | 158 kts | 282° |
| 2026-05-05 14:35 | 14.16474 | 100.89023 | 4532 ft | 158 kts | 282° |
| 2026-05-05 14:35 | 14.16622 | 100.87907 | 4370 ft | 159 kts | 264° |
| 2026-05-05 14:36 | 14.16218 | 100.86864 | 4240 ft | 161 kts | 242° |
| 2026-05-05 14:36 | 14.15513 | 100.85970 | 4063 ft | 162 kts | 209° |
| 2026-05-05 14:36 | 14.14458 | 100.85594 | 3944 ft | 162 kts | 193° |
| 2026-05-05 14:36 | 14.13348 | 100.85355 | 3791 ft | 162 kts | 191° |
| 2026-05-05 14:37 | 14.12254 | 100.85136 | 3643 ft | 161 kts | 191° |
| 2026-05-05 14:37 | 14.11158 | 100.84910 | 3493 ft | 161 kts | 192° |
| 2026-05-05 14:37 | 14.10059 | 100.84673 | 3342 ft | 160 kts | 192° |
| 2026-05-05 14:37 | 14.08990 | 100.84431 | 3195 ft | 160 kts | 193° |
| 2026-05-05 14:38 | 14.07954 | 100.84187 | 3051 ft | 159 kts | 193° |
| 2026-05-05 14:38 | 14.06879 | 100.83925 | 2901 ft | 158 kts | 193° |
| 2026-05-05 14:38 | 14.05837 | 100.83662 | 2755 ft | 158 kts | 194° |
| 2026-05-05 14:38 | 14.04770 | 100.83388 | 2605 ft | 157 kts | 194° |
| 2026-05-05 14:39 | 14.03702 | 100.83109 | 2530 ft | 157 kts | 194° |
| 2026-05-05 14:39 | 14.02648 | 100.82828 | 2502 ft | 157 kts | 194° |
| 2026-05-05 14:39 | 14.01595 | 100.82547 | 2490 ft | 157 kts | 194° |
| 2026-05-05 14:39 | 14.00597 | 100.82278 | 2485 ft | 157 kts | 194° |
| 2026-05-05 14:40 | 13.99541 | 100.81995 | 2507 ft | 157 kts | 194° |
| 2026-05-05 14:40 | 13.98564 | 100.81731 | 2491 ft | 157 kts | 194° |
| 2026-05-05 14:40 | 13.97508 | 100.81447 | 2485 ft | 157 kts | 195° |
| 2026-05-05 14:40 | 13.96467 | 100.81166 | 2483 ft | 157 kts | 194° |
| 2026-05-05 14:41 | 13.95408 | 100.80886 | 2481 ft | 157 kts | 194° |
| 2026-05-05 14:41 | 13.94361 | 100.80611 | 2481 ft | 157 kts | 194° |
| 2026-05-05 14:41 | 13.93310 | 100.80333 | 2481 ft | 157 kts | 194° |
| 2026-05-05 14:41 | 13.92268 | 100.80057 | 2480 ft | 157 kts | 194° |
| 2026-05-05 14:42 | 13.91202 | 100.79776 | 2480 ft | 157 kts | 194° |
| 2026-05-05 14:42 | 13.90155 | 100.79500 | 2480 ft | 157 kts | 194° |
| 2026-05-05 14:42 | 13.89108 | 100.79224 | 2480 ft | 157 kts | 194° |
| 2026-05-05 14:42 | 13.88040 | 100.78946 | 2480 ft | 157 kts | 194° |
| 2026-05-05 14:43 | 13.86989 | 100.78671 | 2480 ft | 157 kts | 194° |
| 2026-05-05 14:43 | 13.85935 | 100.78394 | 2480 ft | 157 kts | 194° |
| 2026-05-05 14:43 | 13.84889 | 100.78119 | 2480 ft | 157 kts | 194° |
| 2026-05-05 14:43 | 13.83837 | 100.77842 | 2480 ft | 157 kts | 194° |
| 2026-05-05 14:44 | 13.82823 | 100.77576 | 2464 ft | 157 kts | 194° |
| 2026-05-05 14:44 | 13.81725 | 100.77287 | 2260 ft | 156 kts | 194° |
| 2026-05-05 14:44 | 13.80682 | 100.77013 | 2059 ft | 155 kts | 194° |
| 2026-05-05 14:44 | 13.79683 | 100.76752 | 1863 ft | 154 kts | 194° |
| 2026-05-05 14:45 | 13.78640 | 100.76479 | 1651 ft | 145 kts | 194° |
| 2026-05-05 14:45 | 13.77833 | 100.76266 | 1473 ft | 136 kts | 194° |
| 2026-05-05 14:45 | 13.76929 | 100.76029 | 1329 ft | 136 kts | 194° |
| 2026-05-05 14:45 | 13.76020 | 100.75790 | 1143 ft | 135 kts | 194° |
| 2026-05-05 14:46 | 13.75138 | 100.75556 | 968 ft | 135 kts | 194° |
| 2026-05-05 14:46 | 13.74239 | 100.75327 | 784 ft | 135 kts | 193° |
| 2026-05-05 14:46 | 13.73314 | 100.75108 | 572 ft | 133 kts | 191° |
| 2026-05-05 14:46 | 13.72508 | 100.74895 | 446 ft | 133 kts | 195° |
| 2026-05-05 14:47 | 13.71627 | 100.74648 | 287 ft | 133 kts | 194° |
| 2026-05-05 14:47 | 13.71196 | 100.74532 | 221 ft | 132 kts | 193° |
| 2026-05-05 14:47 | 13.70289 | 100.74304 | 56 ft | 132 kts | 189° |
| 2026-05-05 14:47 | 13.69467 | 100.74097 | 16 ft | 110 kts | 191° |
| 2026-05-05 14:48 | 13.68891 | 100.73923 | 15 ft | 63 kts | 216° |
| 2026-05-05 14:48 | 13.68575 | 100.73692 | 15 ft | 42 kts | 232° |
| 2026-05-05 14:48 | 13.68575 | 100.73652 | 16 ft | 1 kts | 21° |
| 2026-05-05 14:48 | 13.68577 | 100.73659 | 15 ft | 0 kts | 18° |
| 2026-05-05 14:49 | 13.68628 | 100.73687 | 16 ft | 0 kts | 167° |
| 2026-05-05 14:50 | 13.68619 | 100.73666 | 15 ft | 0 kts | 199° |
| 2026-05-05 14:50 | 13.68717 | 100.73700 | 15 ft | 0 kts | 7° |
| 2026-05-05 14:50 | 13.68741 | 100.73705 | 15 ft | 18 kts | 18° |
| 2026-05-05 14:50 | 13.69574 | 100.73919 | 17 ft | 136 kts | 11° |
| 2026-05-05 14:51 | 13.70480 | 100.74188 | 489 ft | 136 kts | 35° |
| 2026-05-05 14:51 | 13.71067 | 100.74879 | 321 ft | 128 kts | 43° |
| 2026-05-05 14:51 | 13.71870 | 100.75098 | 235 ft | 134 kts | 325° |
| 2026-05-05 14:51 | 13.72166 | 100.74797 | 318 ft | 141 kts | 208° |
| 2026-05-05 14:52 | 13.71406 | 100.74545 | 436 ft | 125 kts | 186° |
| 2026-05-05 14:52 | 13.70451 | 100.74352 | 259 ft | 156 kts | 194° |
| 2026-05-05 14:52 | 13.69450 | 100.74125 | 102 ft | 137 kts | 189° |
| 2026-05-05 14:52 | 13.68735 | 100.74003 | 16 ft | 119 kts | 187° |
| 2026-05-05 14:53 | 13.68653 | 100.74322 | 15 ft | 0 kts | 107° |
| 2026-05-05 14:53 | 13.68652 | 100.74329 | 15 ft | 4 kts | 107° |
| 2026-05-05 14:53 | 13.68655 | 100.74376 | 15 ft | 7 kts | 31° |
| 2026-05-05 14:54 | 13.68713 | 100.74385 | 15 ft | 9 kts | 12° |
| 2026-05-05 14:54 | 13.68778 | 100.74400 | 15 ft | 10 kts | 15° |
| 2026-05-05 14:54 | 13.68841 | 100.74418 | 15 ft | 5 kts | 15° |
| 2026-05-05 14:54 | 13.68864 | 100.74426 | 15 ft | 2 kts | 34° |
| 2026-05-05 14:55 | 13.68873 | 100.74447 | 15 ft | 3 kts | 82° |
| 2026-05-05 14:55 | 13.68868 | 100.74477 | 15 ft | 4 kts | 108° |
| 2026-05-05 14:55 | 13.68861 | 100.74501 | 15 ft | 0 kts | 105° |
| 2026-05-05 14:55 | 13.68861 | 100.74503 | 15 ft | 0 kts | 105° |
| 2026-05-05 14:56 | 13.68858 | 100.74514 | 15 ft | 0 kts | 107° |
| 2026-05-05 14:57 | 13.68924 | 100.74538 | 15 ft | 0 kts | 107° |
| 2026-05-05 14:57 | 13.68860 | 100.74514 | 15 ft | 0 kts | 107° |
| 2026-05-05 14:57 | 13.68857 | 100.74524 | 15 ft | 0 kts | 107° |
| 2026-05-05 14:58 | 13.68856 | 100.74528 | 15 ft | 0 kts | 101° |
| 2026-05-05 14:58 | 13.68914 | 100.74573 | 15 ft | 0 kts | 101° |
| 2026-05-05 14:58 | 13.68841 | 100.74506 | 15 ft | 0 kts | 101° |
| 2026-05-05 14:59 | 13.68853 | 100.74513 | 15 ft | 0 kts | 101° |
| 2026-05-05 14:59 | 13.68855 | 100.74519 | 15 ft | 0 kts | 101° |